createdAt,value
2023-02-17T00:01:40.986Z,2.95
2023-02-17T00:04:09.584Z,2.97
2023-02-17T00:06:38.120Z,0.85
2023-02-17T00:09:07.655Z,3.07
2023-02-17T00:11:36.200Z,3.13
2023-02-17T00:14:04.833Z,3.08
2023-02-17T00:16:33.387Z,2.30
2023-02-17T00:19:24.845Z,2.90
2023-02-17T00:21:55.208Z,3.10
2023-02-17T00:24:24.251Z,2.40
2023-02-17T00:26:52.948Z,2.95
2023-02-17T00:29:21.614Z,2.88
2023-02-17T00:31:50.450Z,3.27
2023-02-17T00:34:20.442Z,2.85
2023-02-17T00:36:49.700Z,2.92
2023-02-17T00:39:19.034Z,3.13
2023-02-17T00:41:47.603Z,3.20
2023-02-17T00:44:19.266Z,2.17
2023-02-17T00:46:48.428Z,2.70
2023-02-17T00:49:20.250Z,3.00
2023-02-17T00:51:49.297Z,2.90
2023-02-17T00:54:18.502Z,2.88
2023-02-17T00:56:47.332Z,3.08
2023-02-17T00:59:15.898Z,2.50
2023-02-17T01:01:44.454Z,1.40
2023-02-17T01:04:13.096Z,2.65
2023-02-17T01:06:43.241Z,2.50
2023-02-17T01:09:16.079Z,2.00
2023-02-17T01:11:44.997Z,2.10
2023-02-17T01:14:15.290Z,2.78
2023-02-17T01:16:46.805Z,1.47
2023-02-17T01:19:17.133Z,2.80
2023-02-17T01:21:47.567Z,2.63
2023-02-17T01:24:16.190Z,2.25
2023-02-17T01:26:44.781Z,2.50
2023-02-17T01:29:13.350Z,2.10
2023-02-17T01:31:42.090Z,2.80
2023-02-17T01:34:11.630Z,1.53
2023-02-17T01:36:40.330Z,2.00
2023-02-17T01:39:11.127Z,2.55
2023-02-17T01:41:39.660Z,1.90
2023-02-17T01:44:16.341Z,1.85
2023-02-17T01:46:46.285Z,1.90
2023-02-17T01:49:27.948Z,2.28
2023-02-17T01:52:00.323Z,2.63
2023-02-17T01:54:36.255Z,1.58
2023-02-17T01:57:05.514Z,1.30
2023-02-17T01:59:34.682Z,2.15
2023-02-17T02:02:06.171Z,1.00
2023-02-17T02:04:39.108Z,1.47
2023-02-17T02:07:17.724Z,1.50
2023-02-17T02:09:52.641Z,1.00
2023-02-17T02:12:23.127Z,0.98
2023-02-17T02:14:53.428Z,0.93
2023-02-17T02:17:32.761Z,1.70
2023-02-17T02:20:43.783Z,1.50
2023-02-17T02:23:40.696Z,1.50
2023-02-17T02:26:58.083Z,2.75
2023-02-17T02:29:54.933Z,2.65
2023-02-17T02:32:40.689Z,2.60
2023-02-17T02:35:15.305Z,1.50
2023-02-17T02:37:48.978Z,2.70
2023-02-17T02:40:21.547Z,2.17
2023-02-17T02:42:51.129Z,2.22
2023-02-17T02:45:20.462Z,1.33
2023-02-17T02:47:52.683Z,2.20
2023-02-17T02:50:26.021Z,2.30
2023-02-17T02:53:11.270Z,1.98
2023-02-17T02:55:53.667Z,1.67
2023-02-17T02:58:28.400Z,2.67
2023-02-17T03:01:00.506Z,2.20
2023-02-17T03:03:41.566Z,2.40
2023-02-17T03:06:17.919Z,2.55
2023-02-17T03:08:52.892Z,2.20
2023-02-17T03:11:32.427Z,2.33
2023-02-17T03:14:06.054Z,2.60
2023-02-17T03:16:35.846Z,2.42
2023-02-17T03:19:06.046Z,2.30
2023-02-17T03:21:39.409Z,1.73
2023-02-17T03:24:08.814Z,2.40
2023-02-17T03:26:37.488Z,2.00
2023-02-17T03:29:06.290Z,2.28
2023-02-17T03:31:35.076Z,2.35
2023-02-17T03:34:05.222Z,1.90
2023-02-17T03:36:34.196Z,2.00
2023-02-17T03:39:02.913Z,1.70
2023-02-17T03:41:31.485Z,2.07
2023-02-17T03:44:00.047Z,2.00
2023-02-17T03:46:28.681Z,2.45
2023-02-17T03:48:57.371Z,2.60
2023-02-17T03:51:27.664Z,1.67
2023-02-17T03:53:56.235Z,1.83
2023-02-17T03:56:24.957Z,2.08
2023-02-17T03:58:53.528Z,2.50
2023-02-17T04:01:22.910Z,1.75
2023-02-17T04:03:51.733Z,2.20
2023-02-17T04:06:20.417Z,2.42
2023-02-17T04:08:50.528Z,2.22
2023-02-17T04:11:19.134Z,1.40
2023-02-17T04:13:47.793Z,2.40
2023-02-17T04:16:16.418Z,2.20
2023-02-17T04:18:45.019Z,2.10
2023-02-17T04:21:13.653Z,1.80
2023-02-17T04:23:42.280Z,2.33
2023-02-17T04:26:12.402Z,1.85
2023-02-17T04:28:42.115Z,1.60
2023-02-17T04:31:11.150Z,1.40
2023-02-17T04:33:40.048Z,2.10
2023-02-17T04:36:09.053Z,1.35
2023-02-17T04:38:37.620Z,2.20
2023-02-17T04:41:07.700Z,1.75
2023-02-17T04:43:37.648Z,2.65
2023-02-17T04:46:06.872Z,1.30
2023-02-17T04:48:35.733Z,2.08
2023-02-17T04:51:04.427Z,2.10
2023-02-17T04:53:33.035Z,2.28
2023-02-17T04:56:01.752Z,1.80
2023-02-17T04:58:30.310Z,2.33
2023-02-17T05:01:01.443Z,2.08
2023-02-17T05:03:30.027Z,2.03
2023-02-17T05:05:58.774Z,1.75
2023-02-17T05:08:27.447Z,1.80
2023-02-17T05:10:56.406Z,1.90
2023-02-17T05:13:25.028Z,0.98
2023-02-17T05:15:53.673Z,1.80
2023-02-17T05:18:23.618Z,2.03
2023-02-17T05:20:53.143Z,1.70
2023-02-17T05:23:21.757Z,2.20
2023-02-17T05:25:50.538Z,2.40
2023-02-17T05:28:19.109Z,2.50
2023-02-17T05:30:50.090Z,2.90
2023-02-17T05:33:18.993Z,1.55
2023-02-17T05:35:48.955Z,2.20
2023-02-17T05:38:17.537Z,1.95
2023-02-17T05:40:46.145Z,2.08
2023-02-17T05:43:14.708Z,2.35
2023-02-17T05:45:43.288Z,2.23
2023-02-17T05:48:11.849Z,1.70
2023-02-17T05:50:40.442Z,1.85
2023-02-17T05:53:10.428Z,1.10
2023-02-17T05:55:39.034Z,2.28
2023-02-17T05:58:07.601Z,1.98
2023-02-17T06:00:36.284Z,1.70
2023-02-17T06:03:05.017Z,1.95
2023-02-17T06:05:33.753Z,2.00
2023-02-17T06:08:02.322Z,1.95
2023-02-17T06:10:32.291Z,1.35
2023-02-17T06:13:01.278Z,2.75
2023-02-17T06:15:30.486Z,2.70
2023-02-17T06:17:59.102Z,2.17
2023-02-17T06:20:27.682Z,2.83
2023-02-17T06:22:56.114Z,3.03
2023-02-17T06:25:24.772Z,2.40
2023-02-17T06:27:54.815Z,2.70
2023-02-17T06:30:24.131Z,1.85
2023-02-17T06:32:52.876Z,2.35
2023-02-17T06:35:21.482Z,2.15
2023-02-17T06:37:50.985Z,2.30
2023-02-17T06:40:20.123Z,2.20
2023-02-17T06:42:48.727Z,2.10
2023-02-17T06:45:18.938Z,2.35
2023-02-17T06:47:47.531Z,2.28
2023-02-17T06:50:16.426Z,2.40
2023-02-17T06:52:45.054Z,2.15
2023-02-17T06:55:13.644Z,2.40
2023-02-17T06:57:42.252Z,1.10
2023-02-17T07:00:11.549Z,2.17
2023-02-17T07:02:42.002Z,1.65
2023-02-17T07:05:10.648Z,2.20
2023-02-17T07:07:39.228Z,2.10
2023-02-17T07:10:09.192Z,1.83
2023-02-17T07:12:37.794Z,1.98
2023-02-17T07:15:09.461Z,2.15
2023-02-17T07:17:41.818Z,1.90
2023-02-17T07:20:11.346Z,1.77
2023-02-17T07:22:39.945Z,2.00
2023-02-17T07:25:08.927Z,1.88
2023-02-17T07:27:37.883Z,2.10
2023-02-17T07:30:07.693Z,1.52
2023-02-17T07:32:36.698Z,1.95
2023-02-17T07:35:07.329Z,2.00
2023-02-17T07:37:35.932Z,1.95
2023-02-17T07:40:04.839Z,1.70
2023-02-17T07:42:33.487Z,2.25
2023-02-17T07:45:02.046Z,2.00
2023-02-17T07:47:30.642Z,2.00
2023-02-17T07:49:59.205Z,2.40
2023-02-17T07:52:29.271Z,2.20
2023-02-17T07:54:57.856Z,2.20
2023-02-17T07:57:26.810Z,1.90
2023-02-17T07:59:55.375Z,2.17
2023-02-17T08:02:24.055Z,2.13
2023-02-17T08:04:53.994Z,1.60
2023-02-17T08:07:22.605Z,1.88
2023-02-17T08:10:09.975Z,2.25
2023-02-17T08:13:04.232Z,2.10
2023-02-17T08:15:35.374Z,1.45
2023-02-17T08:18:05.041Z,2.30
2023-02-17T08:20:35.238Z,2.03
2023-02-17T08:23:04.696Z,2.10
2023-02-17T08:25:36.278Z,1.98
2023-02-17T08:28:06.600Z,1.90
2023-02-17T08:30:38.509Z,1.85
2023-02-17T08:33:07.641Z,1.90
2023-02-17T08:35:36.184Z,2.13
2023-02-17T08:38:04.839Z,2.40
2023-02-17T08:40:34.748Z,2.13
2023-02-17T08:43:03.793Z,2.53
2023-02-17T08:45:32.469Z,2.40
2023-02-17T08:48:01.061Z,1.57
2023-02-17T08:50:29.938Z,1.90
2023-02-17T08:52:58.581Z,2.00
2023-02-17T08:55:27.410Z,2.10
2023-02-17T08:57:59.558Z,2.10
2023-02-17T09:00:28.484Z,1.70
2023-02-17T09:02:57.130Z,2.30
2023-02-17T09:05:26.654Z,2.30
2023-02-17T09:07:55.355Z,2.20
2023-02-17T09:10:24.148Z,2.20
2023-02-17T09:12:53.018Z,2.33
2023-02-17T09:15:23.066Z,2.08
2023-02-17T09:17:51.650Z,2.58
2023-02-17T09:20:25.119Z,2.30
2023-02-17T09:22:54.094Z,2.10
2023-02-17T09:25:22.955Z,2.10
2023-02-17T09:27:51.766Z,2.40
2023-02-17T09:30:20.546Z,2.00
2023-02-17T09:32:50.523Z,2.40
2023-02-17T09:35:20.862Z,2.38
2023-02-17T09:37:49.518Z,2.33
2023-02-17T09:40:22.224Z,2.30
2023-02-17T09:42:51.397Z,1.95
2023-02-17T09:45:23.403Z,2.43
2023-02-17T09:47:57.041Z,2.50
2023-02-17T09:50:30.725Z,2.17
2023-02-17T09:53:04.524Z,2.40
2023-02-17T09:55:37.007Z,2.30
2023-02-17T09:58:10.457Z,2.25
2023-02-17T10:00:44.082Z,2.33
2023-02-17T10:03:19.985Z,2.45
2023-02-17T10:05:54.184Z,2.28
2023-02-17T10:08:26.838Z,2.60
2023-02-17T10:11:00.470Z,2.13
2023-02-17T10:13:35.261Z,2.40
2023-02-17T10:16:09.610Z,2.30
2023-02-17T10:18:45.025Z,2.63
2023-02-17T10:21:22.182Z,1.88
2023-02-17T10:23:51.447Z,2.42
2023-02-17T10:26:34.232Z,2.30
2023-02-17T10:29:07.095Z,2.17
2023-02-17T10:31:45.665Z,2.40
2023-02-17T10:34:27.581Z,2.00
2023-02-17T10:37:02.459Z,2.40
2023-02-17T10:39:49.430Z,2.47
2023-02-17T10:42:23.589Z,2.60
2023-02-17T10:44:54.524Z,2.25
2023-02-17T10:47:23.540Z,2.03
2023-02-17T10:49:57.787Z,2.40
2023-02-17T10:52:40.591Z,2.00
2023-02-17T10:55:23.163Z,1.80
2023-02-17T10:58:00.545Z,2.13
2023-02-17T11:00:28.920Z,3.00
2023-02-17T11:02:57.266Z,2.70
2023-02-17T11:05:30.971Z,2.92
2023-02-17T11:08:03.645Z,2.20
2023-02-17T11:10:36.474Z,2.08
2023-02-17T11:13:20.336Z,2.10
2023-02-17T11:15:49.336Z,2.20
2023-02-17T11:18:28.920Z,2.10
2023-02-17T11:21:06.740Z,2.00
2023-02-17T11:23:36.122Z,1.70
2023-02-17T11:26:12.992Z,2.00
2023-02-17T11:28:41.305Z,1.55
2023-02-17T11:31:25.553Z,2.05
2023-02-17T11:33:56.534Z,2.35
2023-02-17T11:36:29.460Z,2.65
2023-02-17T11:39:00.714Z,2.58
2023-02-17T11:41:39.470Z,2.70
2023-02-17T11:44:11.519Z,3.40
2023-02-17T11:46:49.624Z,2.55
2023-02-17T11:49:30.985Z,3.50
2023-02-17T11:52:15.932Z,2.88
2023-02-17T11:55:00.559Z,3.27
2023-02-17T11:57:40.143Z,2.90
2023-02-17T12:00:19.195Z,2.15
2023-02-17T12:03:21.898Z,2.60
2023-02-17T12:06:06.260Z,2.60
2023-02-17T12:08:53.195Z,2.50
2023-02-17T12:11:31.894Z,3.08
2023-02-17T12:14:16.077Z,2.70
2023-02-17T12:16:52.902Z,1.80
2023-02-17T12:19:39.591Z,1.80
2023-02-17T12:22:19.400Z,2.05
2023-02-17T12:25:19.741Z,1.85
2023-02-17T12:28:06.162Z,1.70
2023-02-17T12:30:53.780Z,2.13
2023-02-17T12:33:44.962Z,2.05
2023-02-17T12:36:16.288Z,2.00
2023-02-17T12:38:50.064Z,2.05
2023-02-17T12:41:24.574Z,1.83
2023-02-17T12:43:58.018Z,1.60
2023-02-17T12:46:30.391Z,1.65
2023-02-17T12:49:07.743Z,1.85
2023-02-17T12:51:41.051Z,1.90
2023-02-17T12:54:20.490Z,1.73
2023-02-17T12:57:01.220Z,1.40
2023-02-17T12:59:35.392Z,1.70
2023-02-17T13:02:06.981Z,1.45
2023-02-17T13:04:36.528Z,1.52
2023-02-17T13:07:37.679Z,1.60
2023-02-17T13:10:09.241Z,2.45
2023-02-17T13:12:42.928Z,1.70
2023-02-17T13:15:36.719Z,1.33
2023-02-17T13:18:08.727Z,1.83
2023-02-17T13:20:53.011Z,1.20
2023-02-17T13:23:38.393Z,1.25
2023-02-17T13:26:27.803Z,1.17
2023-02-17T13:29:35.443Z,1.27
2023-02-17T13:32:06.691Z,1.30
2023-02-17T13:34:38.751Z,1.20
2023-02-17T13:37:21.049Z,1.10
2023-02-17T13:39:49.370Z,1.15
2023-02-17T13:42:39.631Z,0.98
2023-02-17T13:45:26.929Z,0.87
2023-02-17T13:47:58.319Z,0.90
2023-02-17T13:50:34.846Z,0.88
2023-02-17T13:53:04.871Z,1.00
2023-02-17T13:55:33.482Z,0.90
2023-02-17T13:58:01.823Z,0.70
2023-02-17T14:00:33.214Z,0.93
2023-02-17T14:03:12.937Z,1.00
2023-02-17T14:05:46.134Z,1.08
2023-02-17T14:08:20.312Z,1.00
2023-02-17T14:10:49.188Z,0.80
2023-02-17T14:13:17.666Z,0.95
2023-02-17T14:15:57.306Z,0.85
2023-02-17T14:18:37.948Z,0.80
2023-02-17T14:21:10.111Z,0.50
2023-02-17T14:23:48.736Z,0.52
2023-02-17T14:26:31.279Z,0.60
2023-02-17T14:29:01.600Z,0.70
2023-02-17T14:31:31.342Z,0.50
2023-02-17T14:34:05.074Z,0.57
2023-02-17T14:36:37.228Z,0.70
2023-02-17T14:39:08.719Z,0.50
2023-02-17T14:41:37.164Z,0.65
2023-02-17T14:44:06.155Z,0.60
2023-02-17T14:46:36.260Z,0.60
2023-02-17T14:49:05.053Z,0.60
2023-02-17T14:51:35.896Z,0.65
2023-02-17T14:54:11.872Z,0.88
2023-02-17T14:56:45.904Z,0.95
2023-02-17T14:59:14.204Z,0.68
2023-02-17T15:01:43.899Z,0.93
2023-02-17T15:04:12.275Z,0.95
2023-02-17T15:06:43.880Z,0.85
2023-02-17T15:09:16.082Z,0.90
2023-02-17T15:11:48.884Z,0.98
2023-02-17T15:14:19.850Z,0.90
2023-02-17T15:16:50.269Z,0.80
2023-02-17T15:19:19.030Z,1.10
2023-02-17T15:21:50.562Z,0.82
2023-02-17T15:24:22.444Z,0.98
2023-02-17T15:26:50.762Z,0.60
2023-02-17T15:29:22.256Z,0.80
2023-02-17T15:31:54.337Z,0.90
2023-02-17T15:34:26.664Z,0.90
2023-02-17T15:36:55.014Z,1.08
2023-02-17T15:39:23.322Z,1.10
2023-02-17T15:41:53.224Z,1.20
2023-02-17T15:44:24.739Z,0.57
2023-02-17T15:46:56.518Z,1.02
2023-02-17T15:49:24.874Z,1.10
2023-02-17T15:51:53.188Z,1.00
2023-02-17T15:54:23.020Z,1.13
2023-02-17T15:56:53.787Z,1.08
2023-02-17T15:59:26.654Z,1.38
2023-02-17T16:01:56.920Z,1.00
2023-02-17T16:04:25.212Z,0.95
2023-02-17T16:06:53.521Z,1.13
2023-02-17T16:09:21.867Z,0.93
2023-02-17T16:11:53.095Z,1.20
2023-02-17T16:14:27.444Z,0.90
2023-02-17T16:16:57.267Z,1.25
2023-02-17T16:19:25.717Z,1.20
2023-02-17T16:21:54.057Z,1.20
2023-02-17T16:24:22.468Z,1.13
2023-02-17T16:26:50.778Z,1.27
2023-02-17T16:29:23.087Z,0.90
2023-02-17T16:31:52.421Z,1.67
2023-02-17T16:34:24.633Z,1.45
2023-02-17T16:36:57.661Z,1.20
2023-02-17T16:39:26.464Z,1.13
2023-02-17T16:41:54.890Z,1.30
2023-02-17T16:44:24.717Z,0.75
2023-02-17T16:46:55.621Z,1.20
2023-02-17T16:49:32.650Z,1.00
2023-02-17T16:52:01.614Z,1.27
2023-02-17T16:54:30.230Z,1.30
2023-02-17T16:57:00.815Z,1.27
2023-02-17T16:59:29.275Z,2.08
2023-02-17T17:01:57.674Z,1.50
2023-02-17T17:04:27.488Z,1.60
2023-02-17T17:06:55.746Z,1.20
2023-02-17T17:09:25.630Z,1.20
2023-02-17T17:11:53.946Z,1.25
2023-02-17T17:14:22.286Z,1.30
2023-02-17T17:16:56.422Z,1.80
2023-02-17T17:19:26.532Z,1.40
2023-02-17T17:21:54.880Z,1.10
2023-02-17T17:24:23.183Z,1.23
2023-02-17T17:26:51.668Z,1.23
2023-02-17T17:29:23.588Z,1.80
2023-02-17T17:31:51.958Z,1.37
2023-02-17T17:34:20.338Z,1.63
2023-02-17T17:36:50.478Z,1.97
2023-02-17T17:39:22.206Z,1.33
2023-02-17T17:41:52.001Z,0.73
2023-02-17T17:44:20.668Z,1.70
2023-02-17T17:46:49.129Z,1.90
2023-02-17T17:49:18.486Z,2.17
2023-02-17T17:51:47.285Z,1.60
2023-02-17T17:54:16.954Z,0.93
2023-02-17T17:56:45.525Z,1.20
2023-02-17T17:59:14.930Z,1.43
2023-02-17T18:01:45.607Z,1.20
2023-02-17T18:04:14.391Z,2.05
2023-02-17T18:06:47.353Z,1.73
2023-02-17T18:09:31.126Z,1.60
2023-02-17T18:12:05.780Z,1.83
2023-02-17T18:14:35.721Z,1.30
2023-02-17T18:17:04.375Z,1.45
2023-02-17T18:19:33.563Z,2.00
2023-02-17T18:22:02.032Z,0.60
2023-02-17T18:24:31.985Z,1.80
2023-02-17T18:27:00.335Z,1.67
2023-02-17T18:29:28.793Z,1.63
2023-02-17T18:31:59.083Z,1.05
2023-02-17T18:34:27.515Z,0.73
2023-02-17T18:36:55.860Z,0.80
2023-02-17T18:39:24.184Z,1.63
2023-02-17T18:41:54.087Z,2.30
2023-02-17T18:44:22.356Z,1.77
2023-02-17T18:46:50.683Z,2.75
2023-02-17T18:49:18.992Z,1.73
2023-02-17T18:51:47.636Z,1.73
2023-02-17T18:54:15.956Z,1.92
2023-02-17T18:56:44.269Z,2.10
2023-02-17T18:59:13.942Z,1.60
2023-02-17T19:01:43.452Z,2.50
2023-02-17T19:04:13.027Z,2.28
2023-02-17T19:06:41.672Z,2.28
2023-02-17T19:09:10.196Z,2.03
2023-02-17T19:11:38.520Z,2.63
2023-02-17T19:14:06.786Z,2.43
2023-02-17T19:16:36.554Z,2.70
2023-02-17T19:19:05.480Z,0.80
2023-02-17T19:21:36.298Z,2.20
2023-02-17T19:24:05.186Z,2.40
2023-02-17T19:26:34.185Z,2.50
2023-02-17T19:29:02.485Z,2.35
2023-02-17T19:31:31.847Z,2.20
2023-02-17T19:34:01.546Z,2.80
2023-02-17T19:36:29.891Z,1.70
2023-02-17T19:38:59.162Z,2.20
2023-02-17T19:41:27.489Z,2.27
2023-02-17T19:43:55.823Z,3.08
2023-02-17T19:46:25.793Z,2.38
2023-02-17T19:48:54.139Z,1.20
2023-02-17T19:51:23.958Z,2.28
2023-02-17T19:53:52.252Z,1.98
2023-02-17T19:56:23.885Z,2.20
2023-02-17T19:58:52.968Z,2.20
2023-02-17T20:01:23.815Z,1.92
2023-02-17T20:03:54.567Z,2.67
2023-02-17T20:06:27.064Z,2.15
2023-02-17T20:08:57.872Z,2.10
2023-02-17T20:11:27.200Z,2.03
2023-02-17T20:13:57.704Z,3.35
2023-02-17T20:16:26.729Z,3.42
2023-02-17T20:18:55.661Z,2.40
2023-02-17T20:21:28.219Z,2.45
2023-02-17T20:23:57.346Z,2.30
2023-02-17T20:26:29.218Z,1.90
2023-02-17T20:28:58.883Z,2.17
2023-02-17T20:31:28.667Z,2.05
2023-02-17T20:33:57.093Z,2.45
2023-02-17T20:36:26.780Z,2.63
2023-02-17T20:38:55.101Z,2.30
2023-02-17T20:41:24.637Z,1.43
2023-02-17T20:43:53.749Z,1.80
2023-02-17T20:46:26.055Z,1.60
2023-02-17T20:48:55.124Z,2.50
2023-02-17T20:51:23.995Z,2.42
2023-02-17T20:53:53.694Z,2.53
2023-02-17T20:56:24.458Z,2.33
2023-02-17T20:58:53.672Z,2.15
2023-02-17T21:01:22.054Z,2.55
2023-02-17T21:03:50.691Z,2.30
2023-02-17T21:06:23.608Z,2.38
2023-02-17T21:08:56.763Z,2.38
2023-02-17T21:11:25.884Z,2.60
2023-02-17T21:13:54.532Z,1.50
2023-02-17T21:16:25.375Z,2.50
2023-02-17T21:18:53.844Z,2.50
2023-02-17T21:21:22.477Z,2.30
2023-02-17T21:23:51.195Z,2.40
2023-02-17T21:26:21.215Z,2.70
2023-02-17T21:28:49.797Z,2.88
2023-02-17T21:31:18.747Z,1.42
2023-02-17T21:33:47.213Z,2.60
2023-02-17T21:36:18.749Z,2.85
2023-02-17T21:38:48.621Z,2.78
2023-02-17T21:41:21.312Z,3.00
2023-02-17T21:44:07.870Z,2.65
2023-02-17T21:46:37.525Z,1.98
2023-02-17T21:49:06.384Z,2.33
2023-02-17T21:51:34.712Z,2.70
2023-02-17T21:54:03.096Z,2.53
2023-02-17T21:56:32.906Z,2.90
2023-02-17T21:59:01.275Z,3.20
2023-02-17T22:01:30.026Z,3.10
2023-02-17T22:03:58.740Z,2.80
2023-02-17T22:06:31.460Z,3.00
2023-02-17T22:09:00.729Z,2.90
2023-02-17T22:11:31.558Z,3.10
2023-02-17T22:14:04.121Z,2.97
2023-02-17T22:16:34.513Z,2.10
2023-02-17T22:19:03.932Z,3.17
2023-02-17T22:21:32.574Z,1.75
2023-02-17T22:24:02.068Z,2.55
2023-02-17T22:26:31.921Z,1.83
2023-02-17T22:29:01.757Z,2.33
2023-02-17T22:31:32.228Z,1.50
2023-02-17T22:34:05.091Z,3.38
2023-02-17T22:36:35.922Z,2.72
2023-02-17T22:39:06.387Z,3.10
2023-02-17T22:41:36.334Z,2.53
2023-02-17T22:44:06.732Z,1.67
2023-02-17T22:46:36.043Z,2.53
2023-02-17T22:49:05.855Z,2.80
2023-02-17T22:51:37.811Z,2.70
2023-02-17T22:54:07.371Z,2.22
2023-02-17T22:56:36.098Z,2.60
2023-02-17T22:59:06.567Z,3.10
2023-02-17T23:01:37.332Z,2.30
2023-02-17T23:04:06.877Z,1.65
2023-02-17T23:06:37.581Z,3.50
2023-02-17T23:09:07.915Z,2.53
2023-02-17T23:11:53.852Z,2.00
2023-02-17T23:14:27.091Z,1.38
2023-02-17T23:16:59.285Z,1.60
2023-02-17T23:19:28.964Z,2.95
2023-02-17T23:22:01.022Z,2.55
2023-02-17T23:24:29.955Z,2.35
2023-02-17T23:27:00.932Z,2.30
2023-02-17T23:29:32.293Z,3.20
2023-02-17T23:32:00.834Z,2.93
2023-02-17T23:34:29.701Z,3.65
2023-02-17T23:36:58.565Z,2.17
2023-02-17T23:39:27.123Z,3.30
2023-02-17T23:41:55.600Z,2.22
2023-02-17T23:44:23.927Z,2.97
2023-02-17T23:46:53.644Z,3.53
2023-02-17T23:49:21.968Z,2.70
2023-02-17T23:51:50.599Z,2.53
2023-02-17T23:54:18.895Z,3.37
2023-02-17T23:56:47.218Z,1.90
2023-02-17T23:59:15.511Z,3.72
